createdAt,value
2015-12-23T00:00:48.172Z,0
2015-12-23T00:01:48.300Z,0
2015-12-23T00:02:48.006Z,0
2015-12-23T00:03:47.977Z,0
2015-12-23T00:04:47.914Z,0
2015-12-23T00:05:47.901Z,0
2015-12-23T00:06:48.079Z,0
2015-12-23T00:07:47.861Z,0
2015-12-23T00:08:47.816Z,0
2015-12-23T00:09:47.647Z,0
2015-12-23T00:10:47.759Z,0
2015-12-23T00:11:47.714Z,0
2015-12-23T00:12:47.717Z,0
2015-12-23T00:13:47.673Z,0
2015-12-23T00:14:47.864Z,0
2015-12-23T00:15:47.647Z,0
2015-12-23T00:16:47.603Z,0
2015-12-23T00:17:47.559Z,0
2015-12-23T00:18:47.546Z,0
2015-12-23T00:19:47.564Z,0
2015-12-23T00:20:47.474Z,0
2015-12-23T00:21:47.461Z,0
2015-12-23T00:22:47.433Z,0
2015-12-23T00:23:47.419Z,0
2015-12-23T00:24:47.360Z,0
2015-12-23T00:25:47.330Z,0
2015-12-23T00:26:47.522Z,0
2015-12-23T00:27:47.291Z,0
2015-12-23T00:28:47.308Z,0
2015-12-23T00:29:47.233Z,0
2015-12-23T00:30:47.188Z,0
2015-12-23T00:31:47.176Z,0
2015-12-23T00:32:47.132Z,0
2015-12-23T00:33:47.087Z,0
2015-12-23T00:34:47.090Z,0
2015-12-23T00:35:47.108Z,0
2015-12-23T00:36:47.049Z,0
2015-12-23T00:37:46.989Z,0
2015-12-23T00:38:47.102Z,0
2015-12-23T00:39:47.151Z,0
2015-12-23T00:40:46.950Z,0
2015-12-23T00:41:46.860Z,0
2015-12-23T00:42:46.862Z,0
2015-12-23T00:43:46.880Z,0
2015-12-23T00:44:46.790Z,0
2015-12-23T00:45:46.589Z,0
2015-12-23T00:46:45.967Z,0
2015-12-23T00:47:46.704Z,0
2015-12-23T00:48:46.676Z,0
2015-12-23T00:49:46.693Z,0
2015-12-23T00:50:46.618Z,0
2015-12-23T00:51:46.590Z,0
2015-12-23T00:52:46.546Z,0
2015-12-23T00:53:46.579Z,0
2015-12-23T00:54:46.598Z,0
2015-12-23T00:55:46.908Z,0
2015-12-23T00:56:46.604Z,0
2015-12-23T00:57:47.123Z,0
2015-12-23T00:58:46.484Z,0
2015-12-23T00:59:46.923Z,0
2015-12-23T01:00:46.551Z,0
2015-12-23T01:01:46.617Z,0
2015-12-23T01:02:47.150Z,0
2015-12-23T01:03:46.744Z,0
2015-12-23T01:04:46.888Z,0
2015-12-23T01:05:47.094Z,0
2015-12-23T01:06:46.706Z,0
2015-12-23T01:07:47.350Z,0
2015-12-23T01:08:47.242Z,0
2015-12-23T01:09:46.934Z,0
2015-12-23T01:10:46.968Z,0
2015-12-23T01:11:46.720Z,0
2015-12-23T01:12:46.645Z,0
2015-12-23T01:13:47.460Z,0
2015-12-23T01:14:46.760Z,0
2015-12-23T01:15:46.419Z,0
2015-12-23T01:16:46.422Z,0
2015-12-23T01:17:46.486Z,0
2015-12-23T01:18:46.833Z,0
2015-12-23T01:19:46.789Z,0
2015-12-23T01:20:46.478Z,0
2015-12-23T01:21:46.200Z,0
2015-12-23T01:22:46.235Z,0
2015-12-23T01:23:46.300Z,0
2015-12-23T01:24:46.240Z,0
2015-12-23T01:25:45.680Z,0
2015-12-23T01:26:46.403Z,0
2015-12-23T01:27:46.077Z,0
2015-12-23T01:28:46.017Z,0
2015-12-23T01:29:46.175Z,0
2015-12-23T01:30:45.428Z,0
2015-12-23T01:31:46.119Z,0
2015-12-23T01:32:46.152Z,0
2015-12-23T01:33:46.686Z,0
2015-12-23T01:34:47.080Z,0
2015-12-23T01:35:50.552Z,0
2015-12-23T01:36:46.352Z,0
2015-12-23T01:37:46.135Z,0
2015-12-23T01:38:46.436Z,0
2015-12-23T01:39:46.328Z,0
2015-12-23T01:40:46.049Z,0
2015-12-23T01:41:45.662Z,0
2015-12-23T01:42:45.868Z,0
2015-12-23T01:43:45.636Z,0
2015-12-23T01:44:45.858Z,0
2015-12-23T01:45:45.844Z,0
2015-12-23T01:46:45.519Z,0
2015-12-23T01:47:45.428Z,0
2015-12-23T01:48:44.993Z,0
2015-12-23T01:49:44.930Z,0
2015-12-23T01:50:44.887Z,0
2015-12-23T01:51:45.077Z,0
2015-12-23T01:52:44.924Z,0
2015-12-23T01:53:44.785Z,0
2015-12-23T01:54:44.788Z,0
2015-12-23T01:55:44.822Z,0
2015-12-23T01:56:44.762Z,0
2015-12-23T01:57:44.687Z,0
2015-12-23T01:58:44.659Z,0
2015-12-23T01:59:44.630Z,0
2015-12-23T02:00:44.601Z,0
2015-12-23T02:01:44.557Z,0
2015-12-23T02:02:44.545Z,0
2015-12-23T02:03:44.548Z,0
2015-12-23T02:04:44.518Z,0
2015-12-23T02:05:44.725Z,0
2015-12-23T02:06:46.509Z,0
2015-12-23T02:07:45.527Z,0
2015-12-23T02:08:45.687Z,0
2015-12-23T02:09:45.220Z,0
2015-12-23T02:10:45.738Z,0
2015-12-23T02:11:44.491Z,0
2015-12-23T02:12:44.275Z,0
2015-12-23T02:13:44.388Z,0
2015-12-23T02:14:44.516Z,0
2015-12-23T02:15:44.174Z,0
2015-12-23T02:16:44.146Z,0
2015-12-23T02:17:44.164Z,0
2015-12-23T02:18:44.089Z,0
2015-12-23T02:19:44.060Z,0
2015-12-23T02:20:44.141Z,0
2015-12-23T02:21:44.097Z,0
2015-12-23T02:22:44.084Z,0
2015-12-23T02:23:43.946Z,0
2015-12-23T02:24:43.933Z,0
2015-12-23T02:25:44.124Z,0
2015-12-23T02:26:43.861Z,0
2015-12-23T02:27:43.957Z,0
2015-12-23T02:28:43.866Z,0
2015-12-23T02:29:43.869Z,0
2015-12-23T02:30:43.779Z,0
2015-12-23T02:31:43.703Z,0
2015-12-23T02:32:43.721Z,0
2015-12-23T02:33:43.943Z,0
2015-12-23T02:34:43.631Z,0
2015-12-23T02:35:43.586Z,0
2015-12-23T02:36:43.557Z,0
2015-12-23T02:37:43.545Z,0
2015-12-23T02:38:43.610Z,0
2015-12-23T02:39:43.503Z,0
2015-12-23T02:40:43.475Z,0
2015-12-23T02:41:43.445Z,0
2015-12-23T02:42:43.433Z,0
2015-12-23T02:43:43.406Z,0
2015-12-23T02:44:43.345Z,0
2015-12-23T02:45:52.410Z,0
2015-12-23T02:46:43.319Z,0
2015-12-23T02:47:43.244Z,0
2015-12-23T02:48:43.277Z,0
2015-12-23T02:49:43.249Z,0
2015-12-23T02:50:43.237Z,0
2015-12-23T02:51:43.427Z,0
2015-12-23T02:52:43.133Z,0
2015-12-23T02:53:43.089Z,0
2015-12-23T02:54:43.106Z,0
2015-12-23T02:55:43.172Z,0
2015-12-23T02:56:43.003Z,0
2015-12-23T02:57:42.974Z,0
2015-12-23T02:58:43.181Z,0
2015-12-23T02:59:42.995Z,0
2015-12-23T03:00:42.889Z,0
2015-12-23T03:01:42.881Z,0
2015-12-23T03:02:42.868Z,0
2015-12-23T03:03:42.918Z,0
2015-12-23T03:04:42.796Z,0
2015-12-23T03:05:42.752Z,0
2015-12-23T03:06:42.707Z,0
2015-12-23T03:07:42.680Z,0
2015-12-23T03:08:42.666Z,0
2015-12-23T03:09:42.668Z,0
2015-12-23T03:10:42.702Z,0
2015-12-23T03:11:42.580Z,0
2015-12-23T03:12:42.535Z,0
2015-12-23T03:13:42.523Z,0
2015-12-23T03:14:42.651Z,0
2015-12-23T03:15:42.529Z,0
2015-12-23T03:16:42.485Z,0
2015-12-23T03:17:42.425Z,0
2015-12-23T03:18:42.380Z,0
2015-12-23T03:19:42.351Z,0
2015-12-23T03:20:42.308Z,0
2015-12-23T03:21:42.296Z,0
2015-12-23T03:22:42.407Z,0
2015-12-23T03:23:42.266Z,0
2015-12-23T03:24:42.191Z,0
2015-12-23T03:25:42.163Z,0
2015-12-23T03:26:42.165Z,0
2015-12-23T03:27:42.199Z,0
2015-12-23T03:28:42.359Z,0
2015-12-23T03:29:42.048Z,0
2015-12-23T03:30:42.020Z,0
2015-12-23T03:31:42.054Z,0
2015-12-23T03:32:42.245Z,0
2015-12-23T03:33:41.950Z,0
2015-12-23T03:34:42.000Z,0
2015-12-23T03:35:41.737Z,0
2015-12-23T03:36:41.912Z,0
2015-12-23T03:37:41.836Z,0
2015-12-23T03:38:41.792Z,0
2015-12-23T03:39:41.779Z,0
2015-12-23T03:40:41.798Z,0
2015-12-23T03:41:41.706Z,0
2015-12-23T03:42:41.678Z,0
2015-12-23T03:43:41.650Z,0
2015-12-23T03:44:41.684Z,0
2015-12-23T03:45:41.608Z,0
2015-12-23T03:46:41.565Z,0
2015-12-23T03:47:41.536Z,0
2015-12-23T03:48:41.523Z,0
2015-12-23T03:49:41.573Z,0
2015-12-23T03:50:41.481Z,0
2015-12-23T03:51:41.468Z,0
2015-12-23T03:52:41.440Z,0
2015-12-23T03:53:41.209Z,0
2015-12-23T03:54:41.352Z,0
2015-12-23T03:55:41.308Z,0
2015-12-23T03:56:41.311Z,0
2015-12-23T03:57:41.251Z,0
2015-12-23T03:58:41.425Z,0
2015-12-23T03:59:41.287Z,0
2015-12-23T04:00:41.197Z,0
2015-12-23T04:01:41.167Z,0
2015-12-23T04:02:41.123Z,0
2015-12-23T04:03:41.205Z,0
2015-12-23T04:04:41.067Z,0
2015-12-23T04:05:41.131Z,0
2015-12-23T04:06:41.213Z,0
2015-12-23T04:07:40.793Z,0
2015-12-23T04:08:40.983Z,0
2015-12-23T04:09:40.939Z,0
2015-12-23T04:10:40.910Z,0
2015-12-23T04:11:40.851Z,0
2015-12-23T04:12:40.838Z,0
2015-12-23T04:13:40.825Z,0
2015-12-23T04:14:40.796Z,0
2015-12-23T04:15:40.722Z,0
2015-12-23T04:16:40.755Z,0
2015-12-23T04:17:40.677Z,0
2015-12-23T04:18:40.680Z,0
2015-12-23T04:19:40.621Z,0
2015-12-23T04:20:40.591Z,0
2015-12-23T04:21:40.579Z,0
2015-12-23T04:22:40.925Z,0
2015-12-23T04:23:40.552Z,0
2015-12-23T04:24:40.509Z,0
2015-12-23T04:25:40.480Z,0
2015-12-23T04:26:40.436Z,0
2015-12-23T04:27:40.392Z,0
2015-12-23T04:28:39.926Z,0
2015-12-23T04:29:40.351Z,0
2015-12-23T04:30:40.400Z,0
2015-12-23T04:31:40.279Z,0
2015-12-23T04:32:40.249Z,0
2015-12-23T04:33:40.346Z,0
2015-12-23T04:34:40.223Z,0
2015-12-23T04:35:40.164Z,0
2015-12-23T04:36:40.151Z,0
2015-12-23T04:37:40.107Z,0
2015-12-23T04:38:40.198Z,0
2015-12-23T04:39:40.048Z,0
2015-12-23T04:40:40.084Z,0
2015-12-23T04:41:39.966Z,0
2015-12-23T04:42:39.924Z,0
2015-12-23T04:43:39.857Z,0
2015-12-23T04:44:39.839Z,0
2015-12-23T04:45:39.790Z,0
2015-12-23T04:46:39.789Z,0
2015-12-23T04:47:39.741Z,0
2015-12-23T04:48:39.695Z,0
2015-12-23T04:49:39.680Z,0
2015-12-23T04:50:39.728Z,0
2015-12-23T04:51:39.651Z,0
2015-12-23T04:52:39.575Z,0
2015-12-23T04:53:39.561Z,0
2015-12-23T04:54:39.532Z,0
2015-12-23T04:55:39.534Z,0
2015-12-23T04:56:39.489Z,0
2015-12-23T04:57:39.444Z,0
2015-12-23T05:01:38.518Z,0
2015-12-23T05:02:29.455Z,0
2015-12-23T05:03:29.457Z,0
2015-12-23T05:04:29.633Z,0
2015-12-23T05:05:29.558Z,0
2015-12-23T05:06:29.357Z,0
2015-12-23T05:07:29.328Z,0
2015-12-23T05:08:29.440Z,0
2015-12-23T05:09:29.271Z,0
2015-12-23T05:10:29.258Z,0
2015-12-23T05:11:29.151Z,0
2015-12-23T05:12:29.357Z,0
2015-12-23T05:13:29.001Z,0
2015-12-23T05:14:28.977Z,0
2015-12-23T05:15:28.980Z,0
2015-12-23T05:16:28.920Z,0
2015-12-23T05:17:28.845Z,0
2015-12-23T05:18:28.816Z,0
2015-12-23T05:19:28.866Z,0
2015-12-23T05:20:28.806Z,0
2015-12-23T05:21:28.778Z,0
2015-12-23T05:22:28.734Z,0
2015-12-23T05:23:28.674Z,0
2015-12-23T05:24:28.723Z,0
2015-12-23T05:25:29.164Z,0
2015-12-23T05:26:28.620Z,0
2015-12-23T05:27:28.638Z,0
2015-12-23T05:28:28.578Z,0
2015-12-23T05:29:27.784Z,0
2015-12-23T05:30:28.584Z,0
2015-12-23T05:31:28.587Z,0
2015-12-23T05:32:28.464Z,0
2015-12-23T05:33:28.404Z,0
2015-12-23T05:34:28.469Z,0
2015-12-23T05:35:28.362Z,0
2015-12-23T05:36:28.350Z,0
2015-12-23T05:37:28.337Z,0
2015-12-23T05:38:28.325Z,0
2015-12-23T05:39:28.248Z,0
2015-12-23T05:40:28.236Z,0
2015-12-23T05:41:28.176Z,0
2015-12-23T05:42:28.147Z,0
2015-12-23T05:43:28.150Z,0
2015-12-23T05:44:28.122Z,0
2015-12-23T05:45:28.091Z,0
2015-12-23T05:46:30.597Z,0
2015-12-23T05:47:28.018Z,0
2015-12-23T05:48:28.020Z,0
2015-12-23T05:49:27.945Z,0
2015-12-23T05:50:27.916Z,0
2015-12-23T05:51:27.936Z,0
2015-12-23T05:52:27.891Z,0
2015-12-23T05:53:27.831Z,0
2015-12-23T05:54:27.819Z,0
2015-12-23T05:55:27.775Z,0
2015-12-23T05:56:27.778Z,0
2015-12-23T05:57:27.733Z,0
2015-12-23T05:58:27.830Z,0
2015-12-23T05:59:27.676Z,0
2015-12-23T06:00:27.648Z,0
2015-12-23T06:01:27.603Z,0
2015-12-23T06:02:27.575Z,0
2015-12-23T06:03:27.561Z,0
2015-12-23T06:04:27.564Z,0
2015-12-23T06:05:27.535Z,0
2015-12-23T06:06:27.461Z,0
2015-12-23T06:07:27.433Z,0
2015-12-23T06:08:27.404Z,0
2015-12-23T06:09:27.374Z,0
2015-12-23T06:10:27.394Z,0
2015-12-23T06:11:27.319Z,0
2015-12-23T06:12:27.305Z,0
2015-12-23T06:13:27.293Z,0
2015-12-23T06:14:27.108Z,0
2015-12-23T06:15:27.219Z,0
2015-12-23T06:16:27.192Z,0
2015-12-23T06:17:27.116Z,0
2015-12-23T06:18:27.135Z,0
2015-12-23T06:19:27.122Z,0
2015-12-23T06:20:27.124Z,0
2015-12-23T06:21:27.158Z,0
2015-12-23T06:22:26.989Z,0
2015-12-23T06:23:26.976Z,0
2015-12-23T06:24:26.916Z,0
2015-12-23T06:25:27.466Z,0
2015-12-23T06:26:26.891Z,0
2015-12-23T06:27:26.862Z,0
2015-12-23T06:28:27.177Z,0
2015-12-23T06:29:26.773Z,0
2015-12-23T06:30:26.792Z,0
2015-12-23T06:31:26.951Z,0
2015-12-23T06:32:26.704Z,0
2015-12-23T06:33:26.691Z,0
2015-12-23T06:34:26.693Z,0
2015-12-23T06:35:26.631Z,0
2015-12-23T06:36:26.587Z,0
2015-12-23T06:37:26.558Z,0
2015-12-23T06:38:26.545Z,0
2015-12-23T06:39:26.814Z,0
2015-12-23T06:40:26.457Z,0
2015-12-23T06:41:26.429Z,0
2015-12-23T06:42:26.462Z,0
2015-12-23T06:43:26.434Z,0
2015-12-23T06:44:26.359Z,0
2015-12-23T06:45:26.331Z,0
2015-12-23T06:46:33.974Z,0
2015-12-23T06:47:26.320Z,0
2015-12-23T06:48:26.245Z,0
2015-12-23T06:49:26.201Z,0
2015-12-23T06:50:26.188Z,0
2015-12-23T06:51:26.159Z,0
2015-12-23T06:52:26.489Z,0
2015-12-23T06:53:26.071Z,0
2015-12-23T06:54:26.073Z,0
2015-12-23T06:55:26.092Z,0
2015-12-23T06:56:26.033Z,0
2015-12-23T06:57:25.973Z,0
2015-12-23T06:58:25.960Z,0
2015-12-23T06:59:25.931Z,0
2015-12-23T07:00:25.919Z,0
2015-12-23T07:01:25.953Z,0
2015-12-23T07:02:25.909Z,0
2015-12-23T07:03:25.817Z,0
2015-12-23T07:04:25.774Z,0
2015-12-23T07:05:25.886Z,0
2015-12-23T07:06:25.732Z,0
2015-12-23T07:07:25.781Z,0
2015-12-23T07:08:25.659Z,0
2015-12-23T07:09:25.631Z,0
2015-12-23T07:10:25.571Z,0
2015-12-23T07:11:25.636Z,0
2015-12-23T07:12:25.639Z,0
2015-12-23T07:13:25.486Z,0
2015-12-23T07:14:25.472Z,0
2015-12-23T07:15:25.475Z,0
2015-12-23T07:16:25.681Z,0
2015-12-23T07:17:25.449Z,0
2015-12-23T07:18:25.374Z,0
2015-12-23T07:19:25.361Z,0
2015-12-23T07:20:25.395Z,0
2015-12-23T07:21:25.257Z,0
2015-12-23T07:22:25.244Z,0
2015-12-23T07:23:25.418Z,0
2015-12-23T07:24:25.188Z,0
2015-12-23T07:25:25.237Z,0
2015-12-23T07:26:25.143Z,0
2015-12-23T07:27:25.115Z,0
2015-12-23T07:28:25.055Z,0
2015-12-23T07:29:25.089Z,0
2015-12-23T07:30:25.013Z,0
2015-12-23T07:31:25.063Z,0
2015-12-23T07:32:24.988Z,0
2015-12-23T07:33:24.944Z,0
2015-12-23T07:34:24.869Z,0
2015-12-23T07:35:24.855Z,0
2015-12-23T07:36:24.999Z,0
2015-12-23T07:37:24.798Z,0
2015-12-23T07:38:24.816Z,0
2015-12-23T07:39:24.757Z,0
2015-12-23T07:40:24.791Z,0
2015-12-23T07:41:24.685Z,0
2015-12-23T07:42:24.687Z,0
2015-12-23T07:43:24.643Z,0
2015-12-23T07:44:24.630Z,0
2015-12-23T07:45:24.586Z,0
2015-12-23T07:46:24.526Z,0
2015-12-23T07:47:24.482Z,0
2015-12-23T07:48:24.532Z,0
2015-12-23T07:49:24.487Z,0
2015-12-23T07:50:24.632Z,0
2015-12-23T07:51:24.399Z,0
2015-12-23T07:52:24.387Z,0
2015-12-23T07:53:24.389Z,0
2015-12-23T07:54:24.329Z,0
2015-12-23T07:55:24.270Z,0
2015-12-23T07:56:24.241Z,0
2015-12-23T07:57:24.307Z,0
2015-12-23T07:58:24.246Z,0
2015-12-23T07:59:24.157Z,0
2015-12-23T08:00:24.127Z,0
2015-12-23T08:01:24.114Z,0
2015-12-23T08:02:24.132Z,0
2015-12-23T08:03:24.042Z,0
2015-12-23T08:04:24.013Z,0
2015-12-23T08:05:23.984Z,0
2015-12-23T08:06:24.034Z,0
2015-12-23T08:07:23.928Z,0
2015-12-23T08:08:23.930Z,0
2015-12-23T08:09:23.870Z,0
2015-12-23T08:10:23.904Z,0
2015-12-23T08:11:24.001Z,0
2015-12-23T08:12:23.817Z,0
2015-12-23T08:13:23.787Z,5
2015-12-23T08:14:23.774Z,5
2015-12-23T08:15:23.680Z,5
2015-12-23T08:16:23.653Z,5
2015-12-23T08:17:23.624Z,5
2015-12-23T08:18:23.627Z,5
2015-12-23T08:19:23.614Z,5
2015-12-23T08:20:23.632Z,5
2015-12-23T08:21:23.588Z,5
2015-12-23T08:22:23.592Z,5
2015-12-23T08:23:23.469Z,5
2015-12-23T08:24:23.644Z,5
2015-12-23T08:25:23.412Z,5
2015-12-23T08:26:23.414Z,5
2015-12-23T08:27:23.402Z,0
2015-12-23T08:28:23.326Z,0
2015-12-23T08:29:23.313Z,0
2015-12-23T08:30:23.675Z,0
2015-12-23T08:31:23.241Z,0
2015-12-23T08:32:23.197Z,0
2015-12-23T08:33:23.183Z,0
2015-12-23T08:34:23.139Z,0
2015-12-23T08:35:23.095Z,0
2015-12-23T08:36:23.082Z,0
2015-12-23T08:37:23.055Z,0
2015-12-23T08:38:23.025Z,0
2015-12-23T08:39:23.013Z,0
2015-12-23T08:40:22.952Z,0
2015-12-23T08:41:22.205Z,0
2015-12-23T08:42:22.896Z,0
2015-12-23T08:43:22.899Z,0
2015-12-23T08:44:22.823Z,0
2015-12-23T08:45:22.810Z,0
2015-12-23T08:46:22.798Z,0
2015-12-23T08:47:22.785Z,0
2015-12-23T08:48:22.710Z,0
2015-12-23T08:49:22.697Z,0
2015-12-23T08:50:22.683Z,0
2015-12-23T08:51:22.843Z,0
2015-12-23T08:52:22.580Z,0
2015-12-23T08:53:22.583Z,0
2015-12-23T08:54:22.538Z,0
2015-12-23T08:55:22.557Z,0
2015-12-23T08:56:22.496Z,5
2015-12-23T08:57:22.562Z,5
2015-12-23T08:58:22.424Z,5
2015-12-23T08:59:22.427Z,5
2015-12-23T09:00:22.349Z,10
2015-12-23T09:01:22.398Z,10
2015-12-23T09:02:22.354Z,10
2015-12-23T09:03:22.341Z,5
2015-12-23T09:04:22.235Z,5
2015-12-23T09:05:22.238Z,5
2015-12-23T09:06:21.443Z,5
2015-12-23T09:07:22.196Z,5
2015-12-23T09:08:22.277Z,0
2015-12-23T09:09:22.107Z,0
2015-12-23T09:10:22.079Z,0
2015-12-23T09:11:22.645Z,0
2015-12-23T09:12:22.085Z,0
2015-12-23T09:13:22.196Z,0
2015-12-23T09:14:21.981Z,0
2015-12-23T09:15:21.968Z,0
2015-12-23T09:16:21.923Z,0
2015-12-23T09:17:21.880Z,0
2015-12-23T09:18:21.836Z,0
2015-12-23T09:19:21.838Z,0
2015-12-23T09:20:21.795Z,0
2015-12-23T09:21:21.032Z,0
2015-12-23T09:22:21.801Z,0
2015-12-23T09:23:21.053Z,0
2015-12-23T09:24:21.712Z,0
2015-12-23T09:25:21.651Z,0
2015-12-23T09:26:21.654Z,0
2015-12-23T09:27:21.579Z,0
2015-12-23T09:28:21.567Z,0
2015-12-23T09:29:21.538Z,0
2015-12-23T09:30:21.493Z,0
2015-12-23T09:31:21.090Z,0
2015-12-23T09:32:21.436Z,0
2015-12-23T09:33:21.440Z,0
2015-12-23T09:34:21.426Z,0
2015-12-23T09:35:21.382Z,0
2015-12-23T09:36:21.353Z,0
2015-12-23T09:37:21.356Z,0
2015-12-23T09:38:21.406Z,0
2015-12-23T09:39:21.236Z,0
2015-12-23T09:40:21.224Z,5
2015-12-23T09:41:21.227Z,0
2015-12-23T09:42:21.636Z,0
2015-12-23T09:43:21.185Z,5
2015-12-23T09:44:21.172Z,5
2015-12-23T09:45:21.081Z,5
2015-12-23T09:46:21.053Z,5
2015-12-23T09:47:21.008Z,5
2015-12-23T09:48:20.871Z,0
2015-12-23T09:49:20.951Z,0
2015-12-23T09:50:20.938Z,0
2015-12-23T09:51:20.988Z,0
2015-12-23T09:52:20.866Z,5
2015-12-23T09:53:20.837Z,5
2015-12-23T09:54:20.809Z,5
2015-12-23T09:55:20.797Z,5
2015-12-23T09:56:20.768Z,5
2015-12-23T09:57:20.754Z,5
2015-12-23T09:58:20.694Z,0
2015-12-23T09:59:20.682Z,0
2015-12-23T10:00:20.668Z,0
2015-12-23T10:01:20.591Z,0
2015-12-23T10:02:20.579Z,0
2015-12-23T10:03:20.519Z,5
2015-12-23T10:04:20.522Z,5
2015-12-23T10:05:20.805Z,5
2015-12-23T10:06:19.730Z,5
2015-12-23T10:07:20.421Z,5
2015-12-23T10:08:20.627Z,5
2015-12-23T10:09:20.394Z,5
2015-12-23T10:10:20.366Z,5
2015-12-23T10:11:20.307Z,5
2015-12-23T10:12:20.310Z,10
2015-12-23T10:13:19.750Z,10
2015-12-23T10:14:20.205Z,10
2015-12-23T10:15:20.207Z,5
2015-12-23T10:16:20.163Z,5
2015-12-23T10:17:20.151Z,5
2015-12-23T10:18:20.107Z,5
2015-12-23T10:19:20.063Z,5
2015-12-23T10:20:20.128Z,5
2015-12-23T10:21:23.115Z,5
2015-12-23T10:22:20.024Z,5
2015-12-23T10:23:20.027Z,5
2015-12-23T10:24:20.076Z,5
2015-12-23T10:25:19.923Z,5
2015-12-23T10:26:19.878Z,5
2015-12-23T10:27:19.881Z,5
2015-12-23T10:28:19.868Z,10
2015-12-23T10:29:19.840Z,5
2015-12-23T10:30:19.842Z,5
2015-12-23T10:31:19.939Z,5
2015-12-23T10:32:19.707Z,5
2015-12-23T10:33:19.695Z,5
2015-12-23T10:34:19.619Z,5
2015-12-23T10:35:19.637Z,0
2015-12-23T10:36:19.609Z,0
2015-12-23T10:37:18.830Z,0
2015-12-23T10:38:19.521Z,0
2015-12-23T10:39:19.509Z,0
2015-12-23T10:40:19.495Z,0
2015-12-23T10:41:19.731Z,0
2015-12-23T10:42:19.423Z,5
2015-12-23T10:43:19.378Z,5
2015-12-23T10:44:19.350Z,5
2015-12-23T10:45:19.352Z,5
2015-12-23T10:46:19.293Z,5
2015-12-23T10:47:21.827Z,0
2015-12-23T10:48:22.298Z,0
2015-12-23T10:49:19.238Z,0
2015-12-23T10:50:19.194Z,0
2015-12-23T10:51:19.181Z,0
2015-12-23T10:52:19.137Z,0
2015-12-23T10:53:19.108Z,0
2015-12-23T10:54:19.049Z,0
2015-12-23T10:55:19.114Z,0
2015-12-23T10:56:19.054Z,0
2015-12-23T10:57:18.979Z,0
2015-12-23T10:58:18.967Z,0
2015-12-23T10:59:18.922Z,0
2015-12-23T11:00:18.925Z,0
2015-12-23T11:01:18.880Z,0
2015-12-23T11:02:18.867Z,0
2015-12-23T11:03:18.089Z,0
2015-12-23T11:04:18.810Z,0
2015-12-23T11:05:18.782Z,0
2015-12-23T11:06:18.753Z,0
2015-12-23T11:07:18.787Z,0
2015-12-23T11:08:18.649Z,0
2015-12-23T11:09:18.636Z,0
2015-12-23T11:10:18.624Z,0
2015-12-23T11:11:18.577Z,0
2015-12-23T11:12:18.532Z,0
2015-12-23T11:13:18.582Z,0
2015-12-23T11:14:18.522Z,0
2015-12-23T11:15:18.446Z,0
2015-12-23T11:16:18.435Z,0
2015-12-23T11:17:18.437Z,0
2015-12-23T11:18:18.377Z,0
2015-12-23T11:19:18.332Z,0
2015-12-23T11:20:19.085Z,0
2015-12-23T11:21:18.041Z,0
2015-12-23T11:22:19.091Z,0
2015-12-23T11:23:19.234Z,0
2015-12-23T11:24:18.785Z,5
2015-12-23T11:25:18.849Z,5
2015-12-23T11:26:18.618Z,0
2015-12-23T11:27:18.573Z,0
2015-12-23T11:28:18.779Z,0
2015-12-23T11:29:18.657Z,0
2015-12-23T11:30:18.832Z,0
2015-12-23T11:31:18.491Z,5
2015-12-23T11:32:21.493Z,10
2015-12-23T11:33:18.637Z,5
2015-12-23T11:34:18.531Z,5
2015-12-23T11:35:18.534Z,5
2015-12-23T11:36:18.739Z,5
2015-12-23T11:37:18.335Z,5
2015-12-23T11:38:21.431Z,5
2015-12-23T11:39:18.404Z,5
2015-12-23T11:40:17.687Z,5
2015-12-23T11:41:18.237Z,10
2015-12-23T11:42:18.256Z,10
2015-12-23T11:43:21.367Z,5
2015-12-23T11:44:18.339Z,5
2015-12-23T11:45:18.186Z,5
2015-12-23T11:46:17.314Z,75
2015-12-23T11:47:25.238Z,5
2015-12-23T11:48:17.897Z,5
2015-12-23T11:49:21.040Z,10
2015-12-23T11:50:17.934Z,10
2015-12-23T11:51:18.015Z,55
2015-12-23T11:52:17.720Z,20
2015-12-23T11:53:18.067Z,75
2015-12-23T11:54:17.928Z,55
2015-12-23T11:55:17.963Z,70
2015-12-23T11:56:20.981Z,15
2015-12-23T11:57:17.953Z,75
2015-12-23T11:58:17.752Z,15
2015-12-23T11:59:17.864Z,75
2015-12-23T12:00:18.180Z,70
2015-12-23T12:01:17.760Z,70
2015-12-23T12:02:18.060Z,70
2015-12-23T12:03:21.078Z,60
2015-12-23T12:04:17.690Z,65
2015-12-23T12:05:16.162Z,65
2015-12-23T12:06:17.743Z,60
2015-12-23T12:07:17.352Z,50
2015-12-23T12:08:17.841Z,30
2015-12-23T12:09:17.388Z,55
2015-12-23T12:10:16.891Z,50
2015-12-23T12:11:17.535Z,55
2015-12-23T12:12:17.288Z,30
2015-12-23T12:13:17.400Z,20
2015-12-23T12:14:20.481Z,50
2015-12-23T12:15:17.077Z,50
2015-12-23T12:16:17.595Z,50
2015-12-23T12:17:17.316Z,50
2015-12-23T12:18:17.241Z,50
2015-12-23T12:19:17.479Z,50
2015-12-23T12:20:17.216Z,55
2015-12-23T12:21:20.062Z,55
2015-12-23T12:22:17.096Z,55
2015-12-23T12:23:17.255Z,55
2015-12-23T12:24:16.977Z,50
2015-12-23T12:25:16.980Z,55
2015-12-23T12:26:17.029Z,60
2015-12-23T12:27:17.094Z,15
2015-12-23T12:28:17.207Z,55
2015-12-23T12:29:16.959Z,55
2015-12-23T12:30:16.946Z,55
2015-12-23T12:31:16.745Z,50
2015-12-23T12:32:17.045Z,10
2015-12-23T12:33:16.704Z,25
2015-12-23T12:34:16.910Z,10
2015-12-23T12:35:16.913Z,15
2015-12-23T12:36:16.697Z,15
2015-12-23T12:37:16.684Z,25
2015-12-23T12:38:16.718Z,20
2015-12-23T12:39:19.565Z,40
2015-12-23T12:40:16.614Z,10
2015-12-23T12:41:16.586Z,45
2015-12-23T12:42:19.401Z,50
2015-12-23T12:43:16.387Z,50
2015-12-23T12:44:16.375Z,50
2015-12-23T12:45:20.097Z,50
2015-12-23T12:46:19.537Z,50
2015-12-23T12:47:16.399Z,45
2015-12-23T12:48:19.245Z,40
2015-12-23T12:49:16.279Z,40
2015-12-23T12:50:18.611Z,40
2015-12-23T12:51:17.020Z,15
2015-12-23T12:52:25.507Z,35
2015-12-23T12:53:15.822Z,15
2015-12-23T12:54:19.762Z,30
2015-12-23T12:55:16.359Z,35
2015-12-23T12:56:16.128Z,20
2015-12-23T12:57:16.192Z,5
2015-12-23T12:58:15.944Z,10
2015-12-23T12:59:16.057Z,5
2015-12-23T13:00:15.997Z,5
2015-12-23T13:01:15.844Z,5
2015-12-23T13:02:18.908Z,10
2015-12-23T13:03:15.990Z,10
2015-12-23T13:04:15.772Z,10
2015-12-23T13:05:15.603Z,5
2015-12-23T13:06:15.433Z,5
2015-12-23T13:07:15.794Z,5
2015-12-23T13:08:18.703Z,5
2015-12-23T13:09:15.660Z,15
2015-12-23T13:10:15.569Z,5
2015-12-23T13:11:18.509Z,15
2015-12-23T13:12:24.496Z,20
2015-12-23T13:13:18.452Z,5
2015-12-23T13:14:15.939Z,5
2015-12-23T13:15:18.348Z,15
2015-12-23T13:16:15.444Z,20
2015-12-23T13:17:15.808Z,25
2015-12-23T13:18:15.231Z,25
2015-12-23T13:19:18.563Z,25
2015-12-23T13:20:15.253Z,30
2015-12-23T13:21:18.271Z,20
2015-12-23T13:22:18.289Z,30
2015-12-23T13:23:15.308Z,25
2015-12-23T13:24:18.138Z,25
2015-12-23T13:25:15.157Z,20
2015-12-23T13:26:18.160Z,25
2015-12-23T13:27:15.131Z,25
2015-12-23T13:28:17.931Z,10
2015-12-23T13:29:15.011Z,30
2015-12-23T13:30:17.874Z,25
2015-12-23T13:31:15.080Z,25
2015-12-23T13:32:15.177Z,25
2015-12-23T13:33:15.367Z,25
2015-12-23T13:34:15.182Z,25
2015-12-23T13:35:18.278Z,20
2015-12-23T13:36:17.985Z,5
2015-12-23T13:37:15.408Z,5
2015-12-23T13:38:14.911Z,5
2015-12-23T13:39:14.930Z,5
2015-12-23T13:40:15.277Z,5
2015-12-23T13:41:14.935Z,5
2015-12-23T13:42:15.110Z,5
2015-12-23T13:43:17.721Z,5
2015-12-23T13:44:14.924Z,5
2015-12-23T13:45:14.726Z,5
2015-12-23T13:46:14.606Z,5
2015-12-23T13:47:23.549Z,5
2015-12-23T13:48:14.711Z,5
2015-12-23T13:49:14.374Z,5
2015-12-23T13:50:17.388Z,0
2015-12-23T13:51:14.120Z,0
2015-12-23T13:52:15.103Z,5
2015-12-23T13:53:14.163Z,5
2015-12-23T13:54:14.350Z,5
2015-12-23T13:55:14.227Z,5
2015-12-23T13:56:17.164Z,5
2015-12-23T13:57:14.119Z,5
2015-12-23T13:58:13.902Z,5
2015-12-23T13:59:13.997Z,5
2015-12-23T14:00:14.061Z,5
2015-12-23T14:01:13.219Z,5
2015-12-23T14:02:14.221Z,5
2015-12-23T14:03:17.004Z,5
2015-12-23T14:04:14.256Z,0
2015-12-23T14:05:16.978Z,0
2015-12-23T14:06:14.278Z,0
2015-12-23T14:07:15.124Z,0
2015-12-23T14:08:13.968Z,0
2015-12-23T14:09:13.706Z,0
2015-12-23T14:10:13.177Z,0
2015-12-23T14:11:13.695Z,0
2015-12-23T14:12:16.651Z,5
2015-12-23T14:13:13.685Z,5
2015-12-23T14:14:13.797Z,5
2015-12-23T14:15:13.721Z,0
2015-12-23T14:16:13.771Z,0
2015-12-23T14:17:13.758Z,0
2015-12-23T14:18:16.714Z,0
2015-12-23T14:19:16.669Z,0
2015-12-23T14:20:13.907Z,0
2015-12-23T14:21:13.519Z,0
2015-12-23T14:22:13.382Z,0
2015-12-23T14:23:13.477Z,0
2015-12-23T14:24:16.418Z,0
2015-12-23T14:25:22.921Z,0
2015-12-23T14:26:21.439Z,0
2015-12-23T14:27:16.771Z,0
2015-12-23T14:28:13.398Z,0
2015-12-23T14:29:13.322Z,0
2015-12-23T14:30:13.449Z,0
2015-12-23T14:31:13.265Z,0
2015-12-23T14:32:13.799Z,0
2015-12-23T14:33:13.162Z,0
2015-12-23T14:34:13.148Z,0
2015-12-23T14:35:13.229Z,0
2015-12-23T14:36:13.248Z,0
2015-12-23T14:37:13.141Z,0
2015-12-23T14:38:13.082Z,0
2015-12-23T14:39:13.193Z,0
2015-12-23T14:40:13.134Z,0
2015-12-23T14:41:19.026Z,0
2015-12-23T14:42:12.998Z,0
2015-12-23T14:43:13.376Z,0
2015-12-23T14:44:13.020Z,0
2015-12-23T14:45:12.976Z,0
2015-12-23T14:46:12.963Z,0